Time;durP1;ratioP1;P1;durP2;ratioP2;P2;SDS_P1;SDS_P2;PMS_P1;PMS_P2;Temp;Humidity;BMP_temperature;BMP_pressure;BME280_temperature;BME280_humidity;BME280_pressure;Samples;Min_cycle;Max_cycle;Signal;HPM_P1;HPM_P2
2022/09/10 00:01:18;;;;;;;25.70;9.88;;;26.60;99.90;;;;;;5030238;28;20091;-72
2022/09/10 00:03:45;;;;;;;33.67;9.73;;;26.60;99.90;;;;;;5034298;28;20018;-71
2022/09/10 00:06:11;;;;;;;;;;;26.60;99.90;;;;;;5035851;28;20112;-71
2022/09/10 00:08:38;;;;;;;34.53;10.27;;;26.60;99.90;;;;;;5035286;28;20012;-71
2022/09/10 00:11:09;;;;;;;31.00;9.95;;;26.70;99.90;;;;;;5035769;28;20017;-71
2022/09/10 00:13:38;;;;;;;31.27;10.65;;;26.60;99.90;;;;;;5035197;28;20028;-71
2022/09/10 00:16:07;;;;;;;33.47;10.95;;;26.60;99.90;;;;;;5035453;28;20040;-71
2022/09/10 00:18:34;;;;;;;40.92;11.20;;;26.60;99.90;;;;;;5035081;28;20095;-72
2022/09/10 00:21:04;;;;;;;37.03;10.90;;;26.60;99.90;;;;;;5033556;28;20033;-71
2022/09/10 00:23:30;;;;;;;31.15;10.50;;;26.60;99.90;;;;;;5035311;28;20537;-71
2022/09/10 00:25:57;;;;;;;27.65;10.13;;;26.50;99.90;;;;;;5035416;28;20104;-71
2022/09/10 00:28:24;;;;;;;;;;;26.50;99.90;;;;;;5035483;28;20021;-71
2022/09/10 00:30:53;;;;;;;20.20;8.77;;;26.40;99.90;;;;;;5033266;28;20293;-71
2022/09/10 00:33:20;;;;;;;25.98;9.68;;;26.40;99.90;;;;;;5035107;28;20488;-71
2022/09/10 00:35:48;;;;;;;25.73;9.60;;;26.40;99.90;;;;;;5034725;28;20037;-71
2022/09/10 00:38:17;;;;;;;30.45;9.68;;;26.40;99.90;;;;;;5034590;28;20516;-71
2022/09/10 00:40:43;;;;;;;26.63;9.82;;;26.50;99.90;;;;;;5034591;28;20057;-71
2022/09/10 00:43:21;;;;;;;33.20;10.18;;;26.50;99.90;;;;;;5034732;28;20109;-71
2022/09/10 00:45:51;;;;;;;23.50;9.82;;;26.50;99.90;;;;;;5034830;28;20108;-71
2022/09/10 00:48:38;;;;;;;31.33;9.57;;;26.50;99.90;;;;;;5034955;28;20049;-71
2022/09/10 00:51:05;;;;;;;36.25;10.13;;;26.20;99.90;;;;;;5034611;28;20466;-72
2022/09/10 00:53:31;;;;;;;24.55;8.77;;;26.20;99.90;;;;;;5034307;28;20044;-71
2022/09/10 00:56:03;;;;;;;30.48;9.80;;;26.30;99.90;;;;;;5032932;28;20450;-71
2022/09/10 00:58:30;;;;;;;28.10;9.10;;;26.20;99.90;;;;;;5032974;28;20033;-71
2022/09/10 01:01:01;;;;;;;28.50;10.75;;;26.20;99.90;;;;;;5032821;28;20029;-71
2022/09/10 01:03:30;;;;;;;27.70;9.82;;;26.20;99.90;;;;;;5034618;28;20028;-71
2022/09/10 01:05:57;;;;;;;24.70;9.15;;;26.20;99.90;;;;;;5034245;28;20021;-71
2022/09/10 01:08:23;;;;;;;21.27;9.32;;;26.20;99.90;;;;;;5034195;28;20037;-71
2022/09/10 01:11:06;;;;;;;21.30;8.90;;;26.30;99.90;;;;;;5034620;28;20022;-71
2022/09/10 01:13:43;;;;;;;29.30;9.55;;;26.30;99.90;;;;;;5034538;28;20057;-71
2022/09/10 01:16:52;;;;;;;24.80;9.95;;;26.40;99.90;;;;;;5032247;28;20086;-72
2022/09/10 01:19:27;;;;;;;30.15;9.60;;;26.40;99.90;;;;;;5032829;28;20034;-72
2022/09/10 01:22:14;;;;;;;25.15;9.77;;;26.50;99.90;;;;;;5033814;28;20107;-71
2022/09/10 01:24:45;;;;;;;23.52;9.20;;;26.50;99.90;;;;;;5033836;28;20367;-73
2022/09/10 01:27:41;;;;;;;32.90;9.30;;;26.40;99.90;;;;;;5034241;28;20087;-71
2022/09/10 01:30:14;;;;;;;26.58;8.85;;;26.40;99.90;;;;;;5033921;28;20051;-71
2022/09/10 01:33:03;;;;;;;26.08;9.05;;;26.40;99.90;;;;;;5033709;28;20029;-71
2022/09/10 01:35:53;;;;;;;24.58;9.40;;;26.40;99.90;;;;;;5034154;28;20026;-71
2022/09/10 01:38:34;;;;;;;25.52;9.40;;;26.40;99.90;;;;;;5033899;28;20018;-71
2022/09/10 01:41:01;;;;;;;28.02;9.60;;;26.40;99.90;;;;;;5032229;28;20048;-71
2022/09/10 01:43:27;;;;;;;23.90;8.70;;;26.30;99.90;;;;;;5033762;28;20037;-71
2022/09/10 01:46:24;;;;;;;22.70;8.55;;;26.30;99.90;;;;;;5032132;28;20445;-71
2022/09/10 01:49:12;;;;;;;29.85;9.30;;;26.40;99.90;;;;;;5033881;28;20532;-71
2022/09/10 01:52:16;;;;;;;25.55;9.07;;;26.30;99.90;;;;;;5033690;28;20032;-71
2022/09/10 01:55:05;;;;;;;21.48;9.30;;;26.30;99.90;;;;;;5033852;28;20029;-71
2022/09/10 01:57:51;;;;;;;27.77;9.60;;;26.20;99.90;;;;;;5032879;28;20045;-71
2022/09/10 02:00:20;;;;;;;25.35;9.02;;;26.30;99.90;;;;;;5032319;28;20116;-71
2022/09/10 02:02:53;;;;;;;28.85;9.60;;;26.20;99.90;;;;;;5033671;28;20083;-72
2022/09/10 02:05:22;;;;;;;26.60;9.20;;;26.10;99.90;;;;;;5033574;28;20025;-72
2022/09/10 02:07:54;;;;;;;25.45;8.77;;;26.20;99.90;;;;;;5033105;28;20520;-71
2022/09/10 02:10:20;;;;;;;27.33;9.65;;;26.20;99.90;;;;;;5033514;28;20041;-72
2022/09/10 02:12:46;;;;;;;22.83;9.45;;;26.10;99.90;;;;;;5033124;28;20029;-71
2022/09/10 02:15:13;;;;;;;27.33;9.73;;;26.10;99.90;;;;;;5033383;28;20116;-71
2022/09/10 02:17:39;;;;;;;26.70;10.10;;;26.00;99.90;;;;;;5033311;28;20021;-71
2022/09/10 02:20:09;;;;;;;26.83;10.05;;;26.00;99.90;;;;;;5032870;28;20029;-71
2022/09/10 02:22:39;;;;;;;30.55;9.80;;;26.10;99.90;;;;;;5032885;28;20032;-71
2022/09/10 02:25:08;;;;;;;23.08;9.73;;;26.00;99.90;;;;;;5032723;28;20134;-71
2022/09/10 02:27:35;;;;;;;26.40;10.07;;;26.00;99.90;;;;;;5030415;28;20030;-71
2022/09/10 02:30:01;;;;;;;25.92;10.10;;;25.80;99.90;;;;;;5032593;28;20138;-71
2022/09/10 02:32:27;;;;;;;26.02;9.75;;;25.80;99.90;;;;;;5032614;28;20025;-71
2022/09/10 02:34:53;;;;;;;24.15;9.95;;;25.80;99.90;;;;;;5032860;28;20544;-71
2022/09/10 02:37:19;;;;;;;25.73;10.18;;;25.80;99.90;;;;;;5032655;28;20104;-71
2022/09/10 02:39:45;;;;;;;27.73;10.05;;;25.80;99.90;;;;;;5032982;28;20021;-71
2022/09/10 02:42:15;;;;;;;26.35;10.13;;;25.80;99.90;;;;;;5031283;28;20029;-71
2022/09/10 02:44:42;;;;;;;28.75;10.00;;;25.70;99.90;;;;;;5032730;28;20022;-71
2022/09/10 02:47:08;;;;;;;29.80;10.13;;;25.70;99.90;;;;;;5032467;28;20028;-71
2022/09/10 02:49:34;;;;;;;30.67;10.75;;;25.80;99.90;;;;;;5032903;28;20074;-71
2022/09/10 02:52:01;;;;;;;29.50;10.95;;;25.80;99.90;;;;;;5031467;28;20053;-71
2022/09/10 02:54:28;;;;;;;25.83;10.75;;;25.70;99.90;;;;;;5032647;28;20063;-71
2022/09/10 02:56:55;;;;;;;28.67;10.98;;;25.60;99.90;;;;;;5032419;28;20025;-71
2022/09/10 02:59:22;;;;;;;27.92;10.15;;;25.60;99.90;;;;;;5032372;28;20030;-72
2022/09/10 03:01:48;;;;;;;23.45;9.57;;;25.60;99.90;;;;;;5032280;28;20108;-71
2022/09/10 03:04:15;;;;;;;22.67;9.27;;;25.60;99.90;;;;;;5032457;28;20443;-71
2022/09/10 03:06:48;;;;;;;26.17;8.50;;;25.60;99.90;;;;;;5033079;28;20034;-71
2022/09/10 03:09:14;;;;;;;20.65;7.78;;;25.60;99.90;;;;;;5032313;28;20429;-71
2022/09/10 03:11:40;;;;;;;;;;;25.70;99.90;;;;;;5032720;28;20052;-71
2022/09/10 03:14:08;;;;;;;;;;;25.70;99.90;;;;;;5033092;28;20234;-71
2022/09/10 03:16:35;;;;;;;25.10;7.40;;;25.80;99.90;;;;;;5032278;28;19992;-71
2022/09/10 03:19:02;;;;;;;21.58;7.28;;;25.70;99.90;;;;;;5032254;28;20022;-71
2022/09/10 03:21:28;;;;;;;24.30;7.03;;;25.70;99.90;;;;;;5032496;28;20047;-71
2022/09/10 03:23:54;;;;;;;25.13;7.47;;;25.70;99.90;;;;;;5032275;28;20101;-71
2022/09/10 03:26:21;;;;;;;29.00;7.85;;;25.60;99.90;;;;;;5032562;28;20095;-71
2022/09/10 03:28:48;;;;;;;20.42;7.47;;;25.70;99.90;;;;;;5030698;28;20029;-71
2022/09/10 03:31:16;;;;;;;23.15;7.13;;;25.70;99.90;;;;;;5031798;28;20057;-71
2022/09/10 03:33:44;;;;;;;20.20;7.50;;;25.60;99.90;;;;;;5031883;28;20039;-72
2022/09/10 03:36:12;;;;;;;24.73;7.65;;;25.60;99.90;;;;;;5032212;28;20134;-71
2022/09/10 03:38:38;;;;;;;21.58;7.90;;;25.60;99.90;;;;;;5034586;28;20035;-71
2022/09/10 03:41:05;;;;;;;22.58;8.15;;;25.60;99.90;;;;;;5036340;28;20029;-71
2022/09/10 03:43:31;;;;;;;28.52;8.07;;;25.60;99.90;;;;;;5035781;28;20025;-71
2022/09/10 03:45:57;;;;;;;21.15;7.07;;;25.60;99.90;;;;;;5036378;28;20033;-71
2022/09/10 03:48:24;;;;;;;;;;;25.60;99.90;;;;;;5036661;28;20029;-71
2022/09/10 03:50:50;;;;;;;17.35;6.80;;;25.50;99.90;;;;;;5036003;28;20361;-71
2022/09/10 03:53:17;;;;;;;23.73;7.50;;;25.60;99.90;;;;;;5035820;28;20022;-71
2022/09/10 03:55:45;;;;;;;27.85;8.35;;;25.50;99.90;;;;;;5034303;28;20025;-71
2022/09/10 03:58:11;;;;;;;24.73;7.57;;;25.50;99.90;;;;;;5035782;28;20041;-71
2022/09/10 04:00:37;;;;;;;;;;;25.50;99.90;;;;;;5036065;28;20040;-71
2022/09/10 04:03:04;;;;;;;;;;;25.60;99.90;;;;;;5036119;28;19905;-71
2022/09/10 04:05:31;;;;;;;25.35;7.50;;;25.50;99.90;;;;;;5035464;28;19912;-71
2022/09/10 04:07:58;;;;;;;25.52;7.63;;;25.50;99.90;;;;;;5035659;28;20029;-71
2022/09/10 04:10:28;;;;;;;22.27;7.63;;;25.50;99.90;;;;;;5035564;28;20048;-71
2022/09/10 04:12:54;;;;;;;24.85;8.10;;;25.50;99.90;;;;;;5035817;28;20068;-71
2022/09/10 04:15:22;;;;;;;21.83;7.30;;;25.50;99.90;;;;;;5035559;28;20520;-71
2022/09/10 04:18:13;;;;;;;24.65;7.95;;;25.60;99.90;;;;;;5034080;28;20358;-71
2022/09/10 04:20:39;;;;;;;18.80;7.30;;;25.60;99.90;;;;;;5035182;28;20029;-71
2022/09/10 04:23:05;;;;;;;19.67;7.53;;;25.60;99.90;;;;;;5035314;28;20041;-71
2022/09/10 04:25:32;;;;;;;23.50;8.07;;;25.60;99.90;;;;;;5035225;28;20096;-71
2022/09/10 04:27:58;;;;;;;18.52;8.07;;;25.60;99.90;;;;;;5035291;28;20029;-71
2022/09/10 04:30:25;;;;;;;23.15;8.25;;;25.60;99.90;;;;;;5034727;28;20107;-71
2022/09/10 04:33:12;;;;;;;21.00;8.35;;;25.60;99.90;;;;;;5033528;28;20044;-71
2022/09/10 04:35:38;;;;;;;22.40;7.88;;;25.70;99.90;;;;;;5035132;28;20021;-71
2022/09/10 04:38:06;;;;;;;22.75;7.55;;;25.70;99.90;;;;;;5034950;28;20027;-71
2022/09/10 04:40:32;;;;;;;20.17;7.20;;;25.70;99.90;;;;;;5035265;28;20445;-71
2022/09/10 04:42:58;;;;;;;24.20;8.65;;;25.70;99.90;;;;;;5034585;28;20025;-71
2022/09/10 04:45:25;;;;;;;26.55;8.90;;;25.70;99.90;;;;;;5034971;28;20044;-71
2022/09/10 04:47:53;;;;;;;22.38;8.43;;;25.70;99.90;;;;;;5034717;28;20065;-71
2022/09/10 04:50:20;;;;;;;29.10;8.88;;;25.70;99.90;;;;;;5033608;28;20028;-71
2022/09/10 04:52:46;;;;;;;26.05;9.32;;;25.70;99.90;;;;;;5034637;28;20148;-71
2022/09/10 04:55:12;;;;;;;23.85;9.27;;;25.70;99.90;;;;;;5034845;28;20041;-71
2022/09/10 04:57:38;;;;;;;24.20;9.30;;;25.70;99.90;;;;;;5032957;28;20492;-71
2022/09/10 05:00:08;;;;;;;24.42;9.07;;;25.80;99.90;;;;;;5034256;28;20040;-71
2022/09/10 05:02:36;;;;;;;23.60;8.80;;;25.80;99.90;;;;;;5034476;28;20087;-71
2022/09/10 05:05:02;;;;;;;28.10;9.18;;;25.80;99.90;;;;;;5034167;28;20021;-70
2022/09/10 05:07:29;;;;;;;27.00;8.32;;;25.80;99.90;;;;;;5034160;28;20029;-70
2022/09/10 05:09:54;;;;;;;;;;;25.80;99.90;;;;;;5034942;28;20018;-70
2022/09/10 05:12:21;;;;;;;;;;;25.80;99.90;;;;;;5034338;28;19955;-72
2022/09/10 05:14:47;;;;;;;24.80;8.13;;;25.90;99.90;;;;;;5034605;28;19905;-72
2022/09/10 05:17:14;;;;;;;28.52;8.32;;;26.00;99.90;;;;;;5034024;28;20025;-71
2022/09/10 05:19:40;;;;;;;;;;;26.10;99.90;;;;;;5034323;28;20021;-72
2022/09/10 05:22:08;;;;;;;;;;;26.10;99.90;;;;;;5034704;28;19913;-71
2022/09/10 05:24:34;;;;;;;23.60;7.40;;;26.10;99.90;;;;;;5033850;28;20350;-71
2022/09/10 05:27:01;;;;;;;25.42;7.75;;;26.10;99.90;;;;;;5033801;28;20049;-71
2022/09/10 05:29:27;;;;;;;27.27;8.07;;;26.20;99.90;;;;;;5033484;28;20025;-72
2022/09/10 05:31:53;;;;;;;22.83;7.32;;;26.40;99.90;;;;;;5034161;28;20128;-71
2022/09/10 05:34:19;;;;;;;23.08;7.25;;;26.60;99.90;;;;;;5033613;28;20043;-72
2022/09/10 05:36:45;;;;;;;18.80;7.05;;;26.80;99.90;;;;;;5033878;28;20351;-71
2022/09/10 05:39:11;;;;;;;21.90;6.55;;;27.10;99.90;;;;;;5034085;28;20053;-72
2022/09/10 05:41:37;;;;;;;21.65;6.30;;;27.50;99.90;;;;;;5033477;28;20033;-71
2022/09/10 05:44:04;;;;;;;23.42;5.68;;;27.90;99.90;;;;;;5033756;28;20017;-72
2022/09/10 05:46:30;;;;;;;19.75;5.78;;;28.50;99.90;;;;;;5033953;28;20034;-71
2022/09/10 05:48:56;;;;;;;25.38;6.22;;;29.10;99.90;;;;;;5033899;28;20448;-71
2022/09/10 05:51:26;;;;;;;22.55;5.82;;;29.70;99.90;;;;;;5033796;28;20026;-71
2022/09/10 05:53:52;;;;;;;22.48;5.10;;;30.10;99.90;;;;;;5033461;28;20509;-71
2022/09/10 05:56:19;;;;;;;21.23;4.50;;;30.40;99.90;;;;;;5033313;28;20045;-71
2022/09/10 05:58:45;;;;;;;24.25;4.72;;;31.00;99.90;;;;;;5033146;28;20021;-71
2022/09/10 06:01:11;;;;;;;17.88;4.88;;;32.10;99.90;;;;;;5032899;28;20037;-72
2022/09/10 06:03:39;;;;;;;26.45;5.03;;;33.00;99.90;;;;;;5033424;28;20399;-72
2022/09/10 06:06:05;;;;;;;15.27;4.25;;;33.80;99.90;;;;;;5033292;28;20386;-72
2022/09/10 06:08:31;;;;;;;17.13;4.22;;;34.30;99.90;;;;;;5033594;28;20033;-71
2022/09/10 06:11:06;;;;;;;18.60;4.13;;;34.30;99.90;;;;;;5033062;28;20400;-72
2022/09/10 06:13:34;;;;;;;12.93;4.20;;;34.70;99.90;;;;;;5033520;28;20454;-72
2022/09/10 06:16:01;;;;;;;14.68;4.13;;;35.30;99.90;;;;;;5033765;28;20478;-72
2022/09/10 06:18:27;;;;;;;22.63;4.70;;;35.30;99.90;;;;;;5033377;28;20097;-72
2022/09/10 06:21:10;;;;;;;19.55;4.25;;;35.00;99.90;;;;;;5032920;28;20037;-72
2022/09/10 06:23:38;;;;;;;16.33;4.60;;;34.60;99.90;;;;;;5033411;28;20104;-72
2022/09/10 06:26:09;;;;;;;16.70;4.15;;;34.30;99.90;;;;;;5032864;28;20047;-71
2022/09/10 06:28:35;;;;;;;24.25;4.80;;;34.80;99.90;;;;;;5032906;28;20022;-71
2022/09/10 06:31:03;;;;;;;15.05;4.40;;;35.00;99.90;;;;;;5032710;28;20056;-71
2022/09/10 06:33:29;;;;;;;22.25;4.88;;;34.70;99.90;;;;;;5033042;28;20026;-72
2022/09/10 06:35:57;;;;;;;15.73;4.32;;;34.30;99.90;;;;;;5031438;28;20025;-71
2022/09/10 06:38:23;;;;;;;27.15;5.40;;;34.60;99.90;;;;;;5032825;28;20033;-71
2022/09/10 06:41:00;;;;;;;21.67;4.78;;;35.20;99.90;;;;;;5032670;28;20064;-73
2022/09/10 06:43:30;;;;;;;23.23;4.93;;;36.20;99.90;;;;;;5032933;28;20029;-72
2022/09/10 06:45:56;;;;;;;21.38;4.20;;;36.50;99.90;;;;;;5033123;28;20025;-72
2022/09/10 06:48:26;;;;;;;25.40;4.75;;;37.70;99.90;;;;;;5032707;28;20103;-72
2022/09/10 06:51:15;;;;;;;17.40;4.30;;;38.60;99.90;;;;;;5032784;28;20037;-72
2022/09/10 06:53:42;;;;;;;15.93;4.35;;;39.50;99.90;;;;;;5032705;28;20152;-72
2022/09/10 06:56:10;;;;;;;20.48;4.65;;;39.60;99.90;;;;;;5032691;28;20478;-72
2022/09/10 06:58:38;;;;;;;16.48;4.22;;;40.10;99.90;;;;;;5032933;28;20046;-72
2022/09/10 07:01:08;;;;;;;16.38;4.28;;;40.50;99.90;;;;;;5032299;28;20037;-72
2022/09/10 07:03:35;;;;;;;22.73;4.53;;;40.50;99.90;;;;;;5032689;28;20018;-72
2022/09/10 07:06:06;;;;;;;17.08;4.32;;;40.90;99.90;;;;;;5032759;28;20030;-72
2022/09/10 07:09:13;;;;;;;18.77;4.18;;;41.40;99.90;;;;;;5032435;28;20044;-72
2022/09/10 07:11:39;;;;;;;19.08;4.15;;;42.00;99.90;;;;;;5032420;28;20026;-72
2022/09/10 07:14:05;;;;;;;18.50;4.30;;;41.90;99.90;;;;;;5035210;28;20059;-72
2022/09/10 07:16:31;;;;;;;18.00;4.20;;;42.00;99.90;;;;;;5037049;28;20041;-72
2022/09/10 07:18:59;;;;;;;18.17;4.43;;;42.40;99.90;;;;;;5036445;28;20036;-72
2022/09/10 07:21:26;;;;;;;17.33;4.25;;;42.70;99.90;;;;;;5036536;28;20041;-72
2022/09/10 07:24:02;;;;;;;17.50;4.30;;;42.80;99.90;;;;;;5036344;28;20026;-72
2022/09/10 07:26:28;;;;;;;26.38;4.57;;;42.30;99.90;;;;;;5036715;28;20474;-72
2022/09/10 07:28:55;;;;;;;19.88;4.10;;;41.70;99.90;;;;;;5036592;28;20033;-72
2022/09/10 07:31:28;;;;;;;23.52;4.53;;;41.20;99.90;;;;;;5036149;28;20515;-73
2022/09/10 07:33:59;;;;;;;19.08;4.47;;;40.40;99.90;;;;;;5036461;28;20028;-72
2022/09/10 07:36:27;;;;;;;20.17;4.65;;;39.30;99.90;;;;;;5034858;28;20053;-71
2022/09/10 07:38:56;;;;;;;21.25;4.85;;;38.20;99.90;;;;;;5036265;28;20025;-72
2022/09/10 07:41:22;;;;;;;20.13;5.05;;;37.60;99.90;;;;;;5035979;28;20036;-72
2022/09/10 07:43:53;;;;;;;20.55;5.10;;;37.00;99.90;;;;;;5036055;28;20029;-72
2022/09/10 07:46:20;;;;;;;16.38;4.70;;;36.60;99.90;;;;;;5036359;28;20025;-71
2022/09/10 07:48:50;;;;;;;21.73;5.00;;;36.30;99.90;;;;;;5036411;28;20029;-72
2022/09/10 07:51:18;;;;;;;26.85;4.68;;;36.50;99.90;;;;;;5036133;28;20521;-72
2022/09/10 07:53:45;;;;;;;28.33;4.75;;;36.70;99.90;;;;;;5036420;28;20025;-72
2022/09/10 07:56:11;;;;;;;30.25;4.68;;;36.80;99.90;;;;;;5035985;28;20112;-72
2022/09/10 07:58:39;;;;;;;20.98;4.65;;;36.40;99.90;;;;;;5036274;28;20061;-72
2022/09/10 08:01:12;;;;;;;18.70;4.05;;;36.40;99.90;;;;;;5035732;28;20038;-73
2022/09/10 08:03:39;;;;;;;24.75;5.18;;;36.20;99.90;;;;;;5035996;28;20037;-72
2022/09/10 08:06:15;;;;;;;23.15;4.32;;;36.20;99.90;;;;;;5035554;28;20045;-72
2022/09/10 08:08:41;;;;;;;20.58;3.90;;;36.10;99.90;;;;;;5035432;28;20397;-71
2022/09/10 08:11:13;;;;;;;20.92;3.53;;;36.20;99.90;;;;;;5035186;28;20113;-72
2022/09/10 08:13:41;;;;;;;17.40;3.75;;;36.00;99.90;;;;;;5035293;28;20504;-72
2022/09/10 08:16:09;;;;;;;14.52;3.80;;;36.20;99.90;;;;;;5035655;28;20466;-71
2022/09/10 08:18:36;;;;;;;23.73;4.05;;;36.10;99.90;;;;;;5035456;28;20029;-72
2022/09/10 08:21:03;;;;;;;17.65;4.82;;;36.20;99.90;;;;;;5035024;28;20045;-71
2022/09/10 08:24:13;;;;;;;13.65;5.20;;;36.20;99.90;;;;;;5035453;28;20013;-71
2022/09/10 08:26:39;;;;;;;20.90;5.32;;;36.10;99.90;;;;;;5035288;28;20025;-71
2022/09/10 08:29:06;;;;;;;20.13;5.22;;;35.60;99.90;;;;;;5033467;28;20501;-71
2022/09/10 08:31:36;;;;;;;25.38;5.35;;;35.70;99.90;;;;;;5034707;28;20057;-71
2022/09/10 08:34:02;;;;;;;22.55;5.60;;;35.70;99.90;;;;;;5035164;28;20041;-71
2022/09/10 08:36:28;;;;;;;17.60;5.55;;;35.20;99.90;;;;;;5034747;28;20083;-71
2022/09/10 08:38:54;;;;;;;19.55;5.75;;;35.20;99.90;;;;;;5034863;28;20033;-72
2022/09/10 08:41:39;;;;;;;22.67;5.30;;;35.00;99.90;;;;;;5035097;28;20381;-72
2022/09/10 08:44:16;;;;;;;17.00;5.20;;;34.80;99.90;;;;;;5035046;28;20022;-72
2022/09/10 08:46:54;;;;;;;19.45;5.22;;;34.90;99.90;;;;;;5034468;28;20389;-71
2022/09/10 08:49:45;;;;;;;21.40;5.75;;;35.20;99.90;;;;;;5033362;28;20021;-72
2022/09/10 08:52:19;;;;;;;21.67;5.80;;;35.30;99.90;;;;;;5035177;28;20057;-71
2022/09/10 08:54:57;;;;;;;21.35;5.60;;;35.20;99.90;;;;;;5034753;28;20083;-72
2022/09/10 08:57:37;;;;;;;24.35;6.28;;;34.90;99.90;;;;;;5034978;28;20025;-71
2022/09/10 09:00:06;;;;;;;19.40;5.28;;;34.80;99.90;;;;;;5034873;28;20026;-72
2022/09/10 09:03:00;;;;;;;16.90;5.05;;;34.80;99.90;;;;;;5034395;28;20486;-72
2022/09/10 09:05:27;;;;;;;41.47;6.10;;;34.60;99.90;;;;;;5034072;28;20026;-71
2022/09/10 09:07:57;;;;;;;20.65;5.18;;;34.20;99.90;;;;;;5033062;28;20147;-71
2022/09/10 09:10:51;;;;;;;16.50;4.85;;;34.30;99.90;;;;;;5034158;28;20033;-71
2022/09/10 09:13:32;;;;;;;14.60;5.05;;;34.50;99.90;;;;;;5031441;28;20481;-71
2022/09/10 09:16:17;;;;;;;21.42;5.60;;;34.50;99.90;;;;;;5034598;28;20017;-71
2022/09/10 09:19:02;;;;;;;16.02;5.35;;;34.10;99.90;;;;;;5034050;28;20502;-71
2022/09/10 09:21:50;;;;;;;26.00;5.45;;;33.90;99.90;;;;;;5034201;28;20362;-71
2022/09/10 09:24:49;;;;;;;21.25;6.15;;;33.70;99.90;;;;;;5034269;28;20395;-71
2022/09/10 09:27:18;;;;;;;22.05;5.43;;;33.70;99.90;;;;;;5034044;28;20048;-71
2022/09/10 09:30:03;;;;;;;22.00;5.18;;;33.70;99.90;;;;;;5032178;28;20115;-73
2022/09/10 09:32:38;;;;;;;19.83;5.18;;;33.90;99.90;;;;;;5034367;28;20151;-72
2022/09/10 09:35:23;;;;;;;21.77;6.13;;;33.70;99.90;;;;;;5033614;28;20045;-72
2022/09/10 09:38:09;;;;;;;17.47;5.23;;;33.80;99.90;;;;;;5034194;28;20055;-71
2022/09/10 09:40:40;;;;;;;18.65;5.75;;;34.00;99.90;;;;;;5033798;28;20036;-71
2022/09/10 09:43:25;;;;;;;19.52;5.30;;;34.10;99.90;;;;;;5033889;28;20025;-72
2022/09/10 09:45:52;;;;;;;20.00;5.90;;;34.20;99.90;;;;;;5033944;28;20091;-71
2022/09/10 09:48:20;;;;;;;24.75;5.75;;;34.00;99.90;;;;;;5033881;28;20314;-71
2022/09/10 09:50:50;;;;;;;24.02;5.47;;;34.10;99.90;;;;;;5033340;28;20030;-71
2022/09/10 09:53:21;;;;;;;16.58;4.80;;;34.10;99.90;;;;;;5033511;28;20055;-71
2022/09/10 09:56:14;;;;;;;19.95;5.15;;;34.00;99.90;;;;;;5033598;28;20101;-73
2022/09/10 09:58:46;;;;;;;16.13;4.53;;;33.90;99.90;;;;;;5033620;28;20021;-72
2022/09/10 10:01:17;;;;;;;18.67;4.93;;;33.80;99.90;;;;;;5033688;28;20025;-72
2022/09/10 10:03:47;;;;;;;22.05;5.43;;;33.70;99.90;;;;;;5033704;28;20033;-71
2022/09/10 10:06:14;;;;;;;26.60;5.85;;;33.70;99.90;;;;;;5033436;28;20017;-71
2022/09/10 10:08:55;;;;;;;19.30;5.28;;;33.80;99.90;;;;;;5033385;28;20524;-72
2022/09/10 10:11:22;;;;;;;18.80;5.20;;;33.60;99.90;;;;;;5033463;28;20017;-71
2022/09/10 10:14:21;;;;;;;19.55;5.50;;;33.60;99.90;;;;;;5033340;28;20029;-73
2022/09/10 10:16:52;;;;;;;17.95;5.53;;;33.70;99.90;;;;;;5033285;28;20035;-71
2022/09/10 10:19:39;;;;;;;19.08;5.70;;;33.80;99.90;;;;;;5031695;28;20474;-71
2022/09/10 10:22:15;;;;;;;20.52;5.18;;;34.00;99.90;;;;;;5032899;28;20470;-71
2022/09/10 10:24:42;;;;;;;21.00;5.13;;;33.70;99.90;;;;;;5033209;28;20091;-71
2022/09/10 10:27:25;;;;;;;23.73;5.88;;;33.70;99.90;;;;;;5032816;28;20044;-71
2022/09/10 10:30:00;;;;;;;18.58;5.03;;;33.90;99.90;;;;;;5032531;28;20038;-71
2022/09/10 10:32:36;;;;;;;17.65;4.90;;;34.00;99.90;;;;;;5032945;28;20017;-71
2022/09/10 10:35:21;;;;;;;16.20;4.60;;;34.10;99.90;;;;;;5033019;28;20057;-71
2022/09/10 10:38:11;;;;;;;17.70;4.45;;;34.10;99.90;;;;;;5032997;28;20017;-71
2022/09/10 10:41:10;;;;;;;18.63;5.20;;;34.30;99.90;;;;;;5032948;28;20446;-71
2022/09/10 10:43:54;;;;;;;16.88;4.80;;;34.40;99.90;;;;;;5032329;28;20032;-72
2022/09/10 10:46:33;;;;;;;18.23;5.03;;;34.50;99.90;;;;;;5032946;28;20040;-72
2022/09/10 10:49:31;;;;;;;24.90;5.03;;;34.30;99.90;;;;;;5032177;28;20097;-72
2022/09/10 10:52:14;;;;;;;23.35;5.65;;;34.20;99.90;;;;;;5032881;28;20090;-72
2022/09/10 10:54:52;;;;;;;17.73;5.28;;;34.20;99.90;;;;;;5032453;28;20442;-72
2022/09/10 10:57:51;;;;;;;25.83;5.55;;;34.20;99.90;;;;;;5032665;28;20455;-72
2022/09/10 11:00:19;;;;;;;19.20;4.95;;;34.20;99.90;;;;;;5032773;28;20072;-72
2022/09/10 11:03:20;;;;;;;19.52;4.80;;;34.20;99.90;;;;;;5032682;28;20061;-72
2022/09/10 11:05:51;;;;;;;22.13;4.90;;;34.20;99.90;;;;;;5032916;28;20026;-72
2022/09/10 11:08:31;;;;;;;16.58;4.93;;;34.20;99.90;;;;;;5032801;28;20112;-72
2022/09/10 11:11:08;;;;;;;13.02;4.45;;;34.20;99.90;;;;;;5032282;28;20033;-73
2022/09/10 11:13:56;;;;;;;24.75;4.97;;;34.10;99.90;;;;;;5032381;28;20501;-73
2022/09/10 11:16:28;;;;;;;16.55;5.18;;;34.10;99.90;;;;;;5030907;28;20029;-72
2022/09/10 11:19:10;;;;;;;22.33;5.40;;;34.00;99.90;;;;;;5030954;28;20437;-72
2022/09/10 11:21:51;;;;;;;19.77;5.38;;;33.70;99.90;;;;;;5032519;28;20029;-72
2022/09/10 11:24:22;;;;;;;21.25;5.55;;;33.70;99.90;;;;;;5032509;28;20033;-73
2022/09/10 11:26:57;;;;;;;24.08;4.97;;;33.70;99.90;;;;;;5032493;28;20026;-73
2022/09/10 11:29:42;;;;;;;17.38;5.63;;;33.50;99.90;;;;;;5032089;28;20017;-72
2022/09/10 11:32:26;;;;;;;24.75;5.45;;;33.60;99.90;;;;;;5032536;28;20040;-73
2022/09/10 11:35:09;;;;;;;14.52;5.38;;;33.70;99.90;;;;;;5032439;28;20043;-72
2022/09/10 11:37:53;;;;;;;22.63;5.10;;;33.80;99.90;;;;;;5030765;28;20342;-73
2022/09/10 11:40:23;;;;;;;16.83;5.17;;;33.80;99.90;;;;;;5030610;28;20025;-73
2022/09/10 11:42:55;;;;;;;15.90;4.28;;;33.70;99.90;;;;;;5031992;28;20306;-73
2022/09/10 11:45:42;;;;;;;14.85;4.65;;;33.70;99.90;;;;;;5032459;28;20025;-73
2022/09/10 11:48:17;;;;;;;19.10;5.03;;;33.70;99.90;;;;;;5031888;28;20029;-73
2022/09/10 11:50:57;;;;;;;13.70;4.47;;;33.70;99.90;;;;;;5031859;28;20426;-73
2022/09/10 11:53:24;;;;;;;21.98;4.85;;;33.50;99.90;;;;;;5032013;28;20299;-73
2022/09/10 11:55:50;;;;;;;19.08;5.25;;;33.40;99.90;;;;;;5032236;28;20104;-73
2022/09/10 11:58:19;;;;;;;;;;;33.40;99.90;;;;;;5032562;28;20105;-72
2022/09/10 12:01:17;;;;;;;20.65;4.63;;;33.60;99.90;;;;;;5035280;28;20007;-73
2022/09/10 12:04:03;;;;;;;20.00;4.88;;;33.90;99.90;;;;;;5026335;28;20050;-72
2022/09/10 12:06:58;;;;;;;22.75;4.88;;;33.80;99.90;;;;;;5035075;28;20109;-72
2022/09/10 12:09:29;;;;;;;;;;;33.70;99.90;;;;;;5025895;28;20051;-72
2022/09/10 12:12:21;;;;;;;19.77;4.63;;;33.80;99.90;;;;;;5035774;28;20007;-72
2022/09/10 12:14:47;;;;;;;21.92;5.18;;;33.70;99.90;;;;;;5036013;28;20022;-72
2022/09/10 12:17:29;;;;;;;23.38;4.82;;;33.70;99.90;;;;;;5035692;28;20142;-72
2022/09/10 12:19:59;;;;;;;18.50;5.10;;;33.60;99.90;;;;;;5035467;28;20017;-72
2022/09/10 12:22:34;;;;;;;18.95;4.72;;;33.70;99.90;;;;;;5035425;28;20037;-72
2022/09/10 12:25:25;;;;;;;23.45;5.65;;;33.80;99.90;;;;;;5034989;28;20100;-73
2022/09/10 12:27:57;;;;;;;14.55;4.53;;;34.00;99.90;;;;;;5032198;28;20394;-71
2022/09/10 12:30:27;;;;;;;22.85;4.35;;;34.00;99.90;;;;;;5034490;28;20132;-72
2022/09/10 12:32:59;;;;;;;14.60;4.18;;;34.20;99.90;;;;;;5035119;28;20029;-72
2022/09/10 12:35:34;;;;;;;21.85;4.57;;;34.00;99.90;;;;;;5034571;28;20079;-72
2022/09/10 12:38:38;;;;;;;12.43;3.50;;;33.90;99.90;;;;;;5034579;28;20033;-71
2022/09/10 12:41:10;;;;;;;18.98;3.92;;;34.00;99.90;;;;;;5034512;28;20026;-71
2022/09/10 12:43:39;;;;;;;14.85;3.70;;;34.10;99.90;;;;;;5034867;28;20017;-72
2022/09/10 12:46:08;;;;;;;16.00;3.50;;;34.10;99.90;;;;;;5034507;28;20389;-71
2022/09/10 12:49:08;;;;;;;23.92;3.75;;;33.90;99.90;;;;;;5034790;28;20026;-72
2022/09/10 12:51:50;;;;;;;32.63;3.88;;;33.90;99.90;;;;;;5032804;28;20052;-71
2022/09/10 12:54:50;;;;;;;14.95;3.58;;;33.40;99.90;;;;;;5034609;28;20029;-71
2022/09/10 12:57:35;;;;;;;16.65;3.85;;;32.90;99.90;;;;;;5034126;28;20462;-71
2022/09/10 13:00:21;;;;;;;17.27;3.93;;;32.80;99.90;;;;;;5034379;28;20109;-71
2022/09/10 13:03:05;;;;;;;41.65;4.93;;;32.80;99.90;;;;;;5034318;28;20065;-71
2022/09/10 13:05:47;;;;;;;20.40;3.78;;;32.80;99.90;;;;;;5032765;28;20030;-72
2022/09/10 13:08:24;;;;;;;13.02;3.53;;;33.00;99.90;;;;;;5034362;28;20026;-71
2022/09/10 13:11:01;;;;;;;15.02;2.90;;;33.00;99.90;;;;;;5033425;28;20029;-71